Terminal Aerodrome Forecast
Issued by NWS

Home | Current Version | Previous Version | Text Only | Print | Product List | Glossary On
Versions: 1 2 3 4 5 6 7 8 9 10 11 12 13
000
FTUS45 KABQ 170500
TAFROW
TAF
KROW 170537Z 1706/1806 01020G30KT P6SM SCT060 BKN100
     FM171500 02015KT P6SM SCT050 SCT120
     FM172000 07007KT P6SM SCT070 SCT250=

USA.gov is the U.S. government's official web portal to all federal, state and local government web resources and services.